Change Of Latitude — WDF6082 — position and weather

sailwx.info

Track history (hours):
 
Tides and Currents Weather Stations Pressure Air Temp Water Temp Dewpoint Dewpoint Depression Visibility Wind Speed Wind Dir Waves Ship Positions

Change Of Latitude

Owner: Donrah LLC, Bellingham, WA. More information available from US FCC via Universal Licensing System and Coast Guard Vessel Documentation Center.

Last reported at 2015-Jan-05 19:21 UTC. Time now 2015-May-05 02:09 UTC.
Position N 48°45' W 122°30'.
Warning: this ship's position is months out of date.

Length 15 m.

Type: Pleasure craft. MMSI: 367470440.

Date/timePositionNaut miles runAvg speedWind from/ knotsBaromVisibWave heightAir tempDewpointWater temp
2015-Jan-05 19:21N 48°45' W 122°30'7 8.0
2015-Jan-05 18:26N 48°39' W 122°36'7 7.6
2015-Jan-05 17:32N 48°36' W 122°45'8 8.1
2015-Jan-05 16:32N 48°33' W 122°56'3 3.0
2015-Jan-05 15:31N 48°32' W 123°01'0 0.0
2015-Jan-03 22:34N 48°32' W 123°01'  
2014-Dec-29 16:33N 49°20' W 123°18'8 7.6
2014-Dec-29 15:33N 49°18' W 123°07'1 0.6
2014-Dec-29 14:31N 49°17' W 123°08'0 0.0
2014-Dec-28 20:23N 49°17' W 123°08'1 1.1
2014-Dec-28 19:33N 49°18' W 123°07'7 7.3
2014-Dec-28 18:34N 49°15' W 123°17'9 8.4
2014-Dec-28 17:32N 49°07' W 123°19'10 9.4
2014-Dec-28 16:29N 48°59' W 123°09'12 0.7
2014-Dec-27 22:25N 48°52' W 122°54'9 8.9
2014-Dec-27 21:25N 48°46' W 122°44'  
Track history (hours):
 
Tides and Currents Weather Stations Pressure Air Temp Water Temp Dewpoint Dewpoint Depression Visibility Wind Speed Wind Dir Waves Ship Positions

Change Of Latitude

Owner: Donrah LLC, Bellingham, WA. More information available from US FCC via Universal Licensing System and Coast Guard Vessel Documentation Center.

Last reported at 2015-Jan-05 19:21 UTC. Time now 2015-May-05 02:09 UTC.
Position N 48°45' W 122°30'.
Warning: this ship's position is months out of date.

Length 15 m.

Type: Pleasure craft. MMSI: 367470440.

Date/timePositionNaut miles runAvg speedWind from/ knotsBaromVisibWave heightAir tempDewpointWater temp
2015-Jan-05 19:21N 48°45' W 122°30'7 8.0
2015-Jan-05 18:26N 48°39' W 122°36'7 7.6
2015-Jan-05 17:32N 48°36' W 122°45'8 8.1
2015-Jan-05 16:32N 48°33' W 122°56'3 3.0
2015-Jan-05 15:31N 48°32' W 123°01'0 0.0
2015-Jan-03 22:34N 48°32' W 123°01'  
2014-Dec-29 16:33N 49°20' W 123°18'8 7.6
2014-Dec-29 15:33N 49°18' W 123°07'1 0.6
2014-Dec-29 14:31N 49°17' W 123°08'0 0.0
2014-Dec-28 20:23N 49°17' W 123°08'1 1.1
2014-Dec-28 19:33N 49°18' W 123°07'7 7.3
2014-Dec-28 18:34N 49°15' W 123°17'9 8.4
2014-Dec-28 17:32N 49°07' W 123°19'10 9.4
2014-Dec-28 16:29N 48°59' W 123°09'12 0.7
2014-Dec-27 22:25N 48°52' W 122°54'9 8.9
2014-Dec-27 21:25N 48°46' W 122°44'  

Dump ship's entire track history